Terminal Aerodrome Forecast
Issued by NWS

Home | Current Version | Previous Version | Text Only | Print | Product List | Glossary On
Versions: 1 2 3 4 5 6 7 8 9 10 11 12 13 14 15 16
000
FTUS45 KABQ 211417 AAA
TAFLVS
TAF AMD
KLVS 211417Z 2114/2212 10005KT 3SM BR BKN009
      TEMPO 2114/2115 1/4SM FZFG VV002
     FM211600 03005KT P6SM BKN015
     FM211800 03011KT P6SM BKN060
     FM212200 12008KT P6SM SCT070
     FM220200 15005KT P6SM SKC
     FM220600 15005KT P6SM SCT015=

USA.gov is the U.S. government's official web portal to all federal, state and local government web resources and services.